Santa Teresa, NM

3:44 PM MDT on October 21, 2014 (GMT -0600)
Santa Teresa | Change Station
CLOSE
Current Station
Personal Weather Station
Location: Santa Teresa, NM
Elevation: 3811 ft
Nearby Weather Stations

Elev 3811 ft 31.87 °N, 106.65 °W | Updated 3 seconds ago

Partly Cloudy
Partly Cloudy
74.0 °F
Feels Like 77 °F
N
3.0
Wind Variable Wind from ENE
Gusts 5.0 mph

Today
High -- | Low -- °F
--% Chance of Precip.
Yesterday
High -- | Low -- °F
Precip. -- in
7:14 AM 6:27 PM
Waning Crescent, 4% visible
Pressure 29.87 in
Visibility 10.0 miles
Clouds Few 13000 ft
Heat Index 77 °F
Dew Point 54 °F
Humidity 50%
Rainfall 0.00 in
Snow Depth Not available.
UV 5 out of 12
Pollen 4.70 out of 12
Air Quality Not available.
Flu Activity Sporadic
METAR KBIF 212058Z AUTO 17001KT 10SM FEW130 22/12 A3001 RMK AO2 LTG DSNT N SLP114 T02200116 57025

More Conditions Fewer Conditions

Pressure 29.87 in
Visibility 10.0 miles
Clouds Few 13000 ft
Heat Index 77 °F
Dew Point 54 °F
Humidity 50%
Rainfall 0.00 in
Snow Depth Not available.
UV 5 out of 12
Pollen 4.70 out of 12
Air Quality Not available.
Flu Activity Sporadic
METAR KBIF 212058Z AUTO 17001KT 10SM FEW130 22/12 A3001 RMK AO2 LTG DSNT N SLP114 T02200116 57025

More Conditions Fewer Conditions

10-Day Weather Forecast

Almanac

Astronomy

Oct. 21, 2014 Rise Set
Actual Time 7:14 AM MDT 6:27 PM MDT
Civil Twilight 6:49 AM MDT 6:52 PM MDT
Nautical Twilight 6:21 AM MDT 7:20 PM MDT
Astronomical Twilight 5:52 AM MDT 7:49 PM MDT
Moon 5:08 AM MDT 5:16 PM MDT
Length of Visible Light 12h 02m
Length of Day
11h 13m
Tomorrow will be 1m 49s shorter.
Waning Crescent, 4% of the Moon is Illuminated
Today
Waning Crescent
Oct 23
New
Oct 30
First Quarter
Nov 6
Full
Nov 14
Last Quarter

Today's Extremes

State Highs State Lows

Community

WunderPhotos

Upload Photos

1,763,785 photos uploaded!

Nearby

Snow Depth

Station Depth Elevation
McKnight Cabin 0 in 9240 ft
Sierra Blanca 0 in 10280 ft
Silver Creek Divide 1 in 9000 ft
Frisco Divide 0 in 8000 ft
Santa Fe 0 in 11445 ft

Earthquake Activity

City Distance Mag. Time & Date
No recent earthquake activity has been reported nearby.
Minimum magnitude displayed is 2.5.

Coastal Water Temperatures

Place Temperature
No Stations Reporting

Nearby Weather Stations